createdAt,value
2019-04-03T00:01:50.357Z,8.80
2019-04-03T00:04:20.459Z,8.90
2019-04-03T00:06:50.537Z,8.90
2019-04-03T00:09:23.584Z,8.90
2019-04-03T00:11:53.694Z,8.80
2019-04-03T00:14:23.787Z,8.70
2019-04-03T00:16:53.855Z,8.80
2019-04-03T00:19:37.874Z,8.70
2019-04-03T00:22:07.946Z,8.70
2019-04-03T00:24:43.956Z,8.70
2019-04-03T00:27:14.044Z,8.70
2019-04-03T00:29:44.114Z,8.70
2019-04-03T00:32:14.227Z,8.70
2019-04-03T00:34:44.314Z,8.70
2019-04-03T00:37:14.423Z,8.60
2019-04-03T00:39:44.502Z,8.60
2019-04-03T00:42:15.497Z,8.50
2019-04-03T00:44:55.674Z,8.40
2019-04-03T00:47:26.026Z,8.30
2019-04-03T00:49:57.177Z,8.20
2019-04-03T00:52:27.566Z,8.20
2019-04-03T00:54:58.174Z,8.00
2019-04-03T00:57:29.329Z,7.90
2019-04-03T01:00:00.508Z,7.80
2019-04-03T01:02:30.690Z,7.70
2019-04-03T01:05:01.719Z,7.60
2019-04-03T01:07:31.935Z,7.50
2019-04-03T01:10:01.958Z,7.40
2019-04-03T01:12:33.004Z,7.40
2019-04-03T01:15:06.238Z,7.40
2019-04-03T01:17:39.387Z,7.40
2019-04-03T01:20:10.781Z,7.30
2019-04-03T01:22:40.876Z,7.30
2019-04-03T01:25:11.971Z,7.30
2019-04-03T01:27:43.060Z,7.30
2019-04-03T01:30:13.885Z,7.30
2019-04-03T01:32:51.178Z,7.30
2019-04-03T01:35:21.264Z,7.20
2019-04-03T01:37:52.318Z,7.20
2019-04-03T01:40:30.634Z,7.20
2019-04-03T01:43:01.602Z,7.10
2019-04-03T01:45:31.707Z,7.00
2019-04-03T01:48:01.815Z,6.80
2019-04-03T01:50:32.539Z,6.90
2019-04-03T01:53:02.819Z,6.90
2019-04-03T01:55:34.496Z,6.90
2019-04-03T01:58:06.553Z,6.80
2019-04-03T02:00:37.566Z,6.80
2019-04-03T02:03:11.065Z,6.70
2019-04-03T02:05:43.234Z,6.70
2019-04-03T02:08:18.799Z,6.70
2019-04-03T02:10:50.985Z,6.70
2019-04-03T02:13:21.872Z,6.70
2019-04-03T02:15:55.147Z,6.70
2019-04-03T02:18:26.174Z,6.70
2019-04-03T02:20:57.785Z,6.70
2019-04-03T02:23:35.231Z,6.70
2019-04-03T02:26:05.435Z,6.70
2019-04-03T02:28:35.647Z,6.70
2019-04-03T02:31:06.871Z,6.80
2019-04-03T02:33:39.994Z,6.80
2019-04-03T02:36:13.138Z,6.90
2019-04-03T02:38:43.318Z,7.00
2019-04-03T02:41:21.393Z,7.00
2019-04-03T02:43:53.483Z,7.00
2019-04-03T02:46:26.934Z,7.00
2019-04-03T02:48:55.359Z,7.00
2019-04-03T02:51:31.500Z,6.90
2019-04-03T02:54:11.963Z,6.90
2019-04-03T02:56:44.470Z,6.90
2019-04-03T02:59:16.693Z,6.90
2019-04-03T03:01:48.688Z,6.80
2019-04-03T03:04:21.793Z,6.80
2019-04-03T03:06:53.203Z,6.90
2019-04-03T03:09:25.716Z,6.80
2019-04-03T03:11:57.141Z,6.70
2019-04-03T03:14:28.871Z,6.70
2019-04-03T03:17:05.393Z,6.60
2019-04-03T03:19:41.722Z,6.60
2019-04-03T03:22:16.920Z,6.50
2019-04-03T03:24:46.146Z,6.40
2019-04-03T03:27:18.404Z,6.40
2019-04-03T03:29:48.967Z,6.30
2019-04-03T03:32:29.028Z,6.40
2019-04-03T03:35:05.336Z,6.40
2019-04-03T03:37:34.079Z,6.30
2019-04-03T03:40:06.831Z,6.40
2019-04-03T03:42:51.376Z,6.40
2019-04-03T03:45:35.136Z,6.60
2019-04-03T03:48:10.633Z,6.70
2019-04-03T03:50:47.879Z,6.80
2019-04-03T03:53:24.467Z,6.80
2019-04-03T03:55:59.652Z,6.80
2019-04-03T03:58:31.706Z,6.80
2019-04-03T04:01:08.208Z,7.00
2019-04-03T04:03:41.725Z,7.00
2019-04-03T04:06:12.743Z,7.10
2019-04-03T04:08:46.235Z,7.20
2019-04-03T04:11:20.961Z,7.20
2019-04-03T04:13:55.121Z,7.20
2019-04-03T04:16:25.383Z,7.30
2019-04-03T04:18:58.274Z,7.30
2019-04-03T04:21:42.727Z,7.40
2019-04-03T04:24:10.843Z,7.40
2019-04-03T04:26:41.664Z,7.50
2019-04-03T04:29:13.262Z,7.50
2019-04-03T04:31:45.263Z,7.60
2019-04-03T04:34:18.312Z,7.50
2019-04-03T04:36:48.151Z,7.60
2019-04-03T04:39:19.404Z,7.60
2019-04-03T04:41:49.487Z,7.60
2019-04-03T04:44:19.815Z,7.50
2019-04-03T04:46:49.888Z,7.40
2019-04-03T04:49:22.377Z,7.30
2019-04-03T04:51:51.778Z,7.30
2019-04-03T04:54:21.867Z,7.30
2019-04-03T04:56:52.969Z,7.30
2019-04-03T04:59:23.027Z,7.30
2019-04-03T05:01:53.107Z,7.20
2019-04-03T05:04:25.236Z,7.10
2019-04-03T05:06:55.069Z,7.10
2019-04-03T05:09:25.083Z,7.10
2019-04-03T05:12:01.143Z,7.00
2019-04-03T05:14:37.456Z,7.10
2019-04-03T05:17:08.794Z,7.30
2019-04-03T05:19:39.914Z,7.40
2019-04-03T05:22:12.011Z,7.50
2019-04-03T05:24:42.162Z,7.60
2019-04-03T05:27:13.198Z,7.70
2019-04-03T05:29:43.326Z,7.90
2019-04-03T05:32:16.094Z,8.00
2019-04-03T05:34:46.226Z,8.10
2019-04-03T05:37:18.037Z,8.20
2019-04-03T05:39:49.491Z,8.40
2019-04-03T05:42:20.587Z,8.50
2019-04-03T05:44:58.078Z,8.50
2019-04-03T05:47:28.283Z,8.50
2019-04-03T05:49:58.623Z,8.50
2019-04-03T05:52:29.781Z,8.60
2019-04-03T05:55:00.871Z,8.70
2019-04-03T05:57:32.112Z,8.90
2019-04-03T06:00:06.876Z,9.20
2019-04-03T06:02:36.655Z,9.30
2019-04-03T06:05:07.657Z,9.50
2019-04-03T06:07:38.735Z,9.60
2019-04-03T06:10:08.887Z,9.50
2019-04-03T06:12:44.618Z,9.60
2019-04-03T06:15:14.110Z,9.60
2019-04-03T06:17:44.714Z,9.70
2019-04-03T06:20:15.124Z,9.90
2019-04-03T06:22:45.180Z,10.10
2019-04-03T06:25:16.505Z,10.30
2019-04-03T06:27:49.607Z,10.50
2019-04-03T06:30:20.989Z,10.80
2019-04-03T06:32:51.075Z,11.00
2019-04-03T06:35:22.107Z,11.20
2019-04-03T06:37:53.155Z,11.50
2019-04-03T06:40:23.717Z,11.70
2019-04-03T06:42:53.813Z,11.80
2019-04-03T06:45:31.086Z,12.00
2019-04-03T06:48:05.152Z,12.00
2019-04-03T06:50:40.315Z,12.30
2019-04-03T06:53:12.446Z,12.50
2019-04-03T06:55:42.550Z,12.80
2019-04-03T06:58:12.834Z,13.00
2019-04-03T07:00:45.271Z,13.00
2019-04-03T07:03:22.538Z,13.00
2019-04-03T07:05:52.475Z,12.80
2019-04-03T07:08:33.097Z,12.60
2019-04-03T07:11:00.327Z,12.40
2019-04-03T07:13:30.457Z,12.40
2019-04-03T07:16:06.299Z,12.10
2019-04-03T07:18:37.538Z,12.10
2019-04-03T07:21:08.583Z,12.10
2019-04-03T07:23:44.546Z,12.30
2019-04-03T07:26:14.655Z,12.40
2019-04-03T07:28:50.811Z,12.70
2019-04-03T07:31:24.355Z,13.10
2019-04-03T07:33:53.675Z,13.60
2019-04-03T07:36:35.855Z,14.00
2019-04-03T07:39:20.994Z,13.80
2019-04-03T07:41:54.868Z,14.00
2019-04-03T07:44:30.710Z,14.30
2019-04-03T07:47:03.523Z,14.40
2019-04-03T07:49:32.959Z,15.10
2019-04-03T07:52:05.080Z,15.40
2019-04-03T07:54:47.406Z,15.10
2019-04-03T07:57:26.876Z,15.10
2019-04-03T08:00:01.451Z,15.60
2019-04-03T08:02:33.686Z,15.70
2019-04-03T08:05:04.009Z,15.20
2019-04-03T08:07:34.111Z,15.90
2019-04-03T08:10:06.176Z,16.40
2019-04-03T08:12:36.345Z,16.90
2019-04-03T08:15:14.000Z,17.20
2019-04-03T08:17:53.205Z,17.50
2019-04-03T08:20:25.739Z,17.60
2019-04-03T08:22:57.474Z,17.60
2019-04-03T08:25:28.685Z,18.30
2019-04-03T08:28:00.697Z,18.30
2019-04-03T08:30:37.061Z,18.50
2019-04-03T08:33:16.838Z,18.40
2019-04-03T08:35:52.296Z,18.30
2019-04-03T08:38:24.443Z,18.70
2019-04-03T08:40:56.443Z,18.10
2019-04-03T08:43:27.682Z,17.70
2019-04-03T08:46:04.745Z,17.30
2019-04-03T08:48:35.198Z,18.00
2019-04-03T08:51:05.718Z,18.80
2019-04-03T08:53:39.328Z,19.20
2019-04-03T08:56:10.522Z,19.50
2019-04-03T08:58:49.588Z,19.50
2019-04-03T09:01:29.029Z,19.80
2019-04-03T09:03:59.215Z,20.40
2019-04-03T09:06:29.386Z,20.70
2019-04-03T09:09:11.502Z,20.70
2019-04-03T09:11:41.567Z,21.60
2019-04-03T09:14:12.746Z,21.80
2019-04-03T09:16:42.959Z,22.00
2019-04-03T09:19:19.674Z,22.60
2019-04-03T09:21:55.560Z,23.30
2019-04-03T09:24:32.821Z,22.70
2019-04-03T09:27:04.823Z,22.60
2019-04-03T09:29:36.859Z,22.80
2019-04-03T09:32:09.042Z,21.80
2019-04-03T09:34:42.492Z,21.10
2019-04-03T09:37:12.723Z,20.70
2019-04-03T09:39:45.304Z,21.30
2019-04-03T09:42:14.979Z,22.60
2019-04-03T09:44:45.356Z,23.60
2019-04-03T09:47:15.411Z,24.70
2019-04-03T09:49:58.599Z,24.30
2019-04-03T09:52:44.782Z,24.30
2019-04-03T09:55:09.720Z,22.50
2019-04-03T09:57:40.760Z,23.50
2019-04-03T10:00:12.167Z,24.40
2019-04-03T10:02:42.251Z,25.50
2019-04-03T10:05:14.424Z,25.70
2019-04-03T10:07:44.920Z,25.90
2019-04-03T10:10:17.625Z,26.40
2019-04-03T10:12:48.886Z,25.50
2019-04-03T10:15:19.513Z,25.20
2019-04-03T10:17:49.761Z,24.70
2019-04-03T10:20:23.692Z,26.00
2019-04-03T10:22:56.112Z,26.90
2019-04-03T10:25:25.914Z,27.40
2019-04-03T10:27:58.135Z,25.80
2019-04-03T10:30:29.646Z,27.00
2019-04-03T10:33:00.400Z,27.80
2019-04-03T10:35:38.693Z,27.20
2019-04-03T10:38:08.497Z,28.00
2019-04-03T10:40:39.877Z,28.60
2019-04-03T10:43:09.943Z,26.60
2019-04-03T10:45:40.275Z,26.10
2019-04-03T10:48:15.527Z,27.60
2019-04-03T10:50:50.915Z,28.50
2019-04-03T10:53:21.212Z,29.60
2019-04-03T10:55:53.217Z,30.50
2019-04-03T10:58:26.328Z,30.40
2019-04-03T11:00:59.120Z,30.00
2019-04-03T11:03:29.139Z,30.80
2019-04-03T11:05:59.224Z,31.80
2019-04-03T11:08:33.311Z,31.40
2019-04-03T11:11:05.078Z,30.80
2019-04-03T11:13:35.639Z,30.50
2019-04-03T11:16:06.104Z,29.80
2019-04-03T11:18:36.149Z,30.80
2019-04-03T11:21:06.287Z,32.80
2019-04-03T11:23:41.914Z,33.70
2019-04-03T11:26:08.437Z,34.10
2019-04-03T11:28:39.076Z,31.60
2019-04-03T11:31:25.378Z,30.40
2019-04-03T11:33:51.407Z,29.90
2019-04-03T11:36:25.641Z,28.70
2019-04-03T11:39:11.315Z,27.90
2019-04-03T11:41:30.103Z,28.90
2019-04-03T11:44:00.175Z,31.20
2019-04-03T11:46:33.332Z,33.30
2019-04-03T11:49:03.413Z,33.80
2019-04-03T11:51:34.478Z,34.10
2019-04-03T11:54:06.774Z,34.40
2019-04-03T11:56:37.014Z,34.20
2019-04-03T11:59:09.083Z,34.80
2019-04-03T12:01:40.109Z,34.00
2019-04-03T12:04:12.729Z,34.60
2019-04-03T12:06:45.486Z,35.10
2019-04-03T12:09:15.583Z,34.70
2019-04-03T12:11:45.723Z,34.30
2019-04-03T12:14:26.964Z,34.40
2019-04-03T12:16:58.373Z,35.70
2019-04-03T12:19:28.533Z,36.10
2019-04-03T12:22:00.901Z,35.20
2019-04-03T12:24:31.055Z,35.40
2019-04-03T12:27:03.334Z,35.20
2019-04-03T12:29:33.410Z,36.50
2019-04-03T12:32:04.043Z,36.90
2019-04-03T12:34:37.226Z,36.70
2019-04-03T12:37:07.363Z,36.90
2019-04-03T12:39:37.443Z,36.30
2019-04-03T12:42:08.756Z,35.70
2019-04-03T12:44:39.905Z,33.30
2019-04-03T12:47:12.456Z,32.40
2019-04-03T12:49:42.695Z,33.10
2019-04-03T12:52:14.751Z,34.30
2019-04-03T12:54:44.839Z,36.40
2019-04-03T12:57:14.940Z,36.50
2019-04-03T12:59:47.615Z,35.90
2019-04-03T13:02:20.579Z,36.40
2019-04-03T13:04:54.209Z,34.70
2019-04-03T13:07:28.325Z,33.20
2019-04-03T13:09:59.496Z,32.90
2019-04-03T13:12:29.657Z,32.40
2019-04-03T13:14:59.835Z,31.60
2019-04-03T13:17:31.154Z,30.80
2019-04-03T13:20:05.590Z,29.90
2019-04-03T13:22:34.355Z,29.10
2019-04-03T13:25:08.665Z,29.60
2019-04-03T13:27:38.707Z,29.50
2019-04-03T13:30:21.342Z,29.60
2019-04-03T13:32:58.335Z,28.70
2019-04-03T13:35:23.195Z,27.80
2019-04-03T13:37:55.901Z,27.50
2019-04-03T13:40:25.759Z,27.50
2019-04-03T13:42:56.082Z,27.40
2019-04-03T13:45:30.676Z,27.60
2019-04-03T13:47:59.958Z,27.50
2019-04-03T13:50:30.051Z,27.30
2019-04-03T13:53:00.410Z,27.20
2019-04-03T13:55:33.840Z,26.20
2019-04-03T13:58:02.431Z,25.40
2019-04-03T14:00:40.784Z,26.00
2019-04-03T14:03:18.120Z,25.70
2019-04-03T14:05:50.197Z,24.30
2019-04-03T14:08:21.960Z,24.00
2019-04-03T14:10:52.079Z,23.50
2019-04-03T14:13:30.271Z,23.30
2019-04-03T14:16:01.665Z,23.00
2019-04-03T14:18:33.276Z,22.80
2019-04-03T14:21:03.601Z,22.30
2019-04-03T14:23:35.168Z,21.80
2019-04-03T14:26:08.362Z,21.60
2019-04-03T14:28:37.451Z,21.40
2019-04-03T14:31:07.523Z,21.60
2019-04-03T14:33:44.075Z,21.80
2019-04-03T14:36:09.392Z,21.90
2019-04-03T14:38:42.475Z,22.20
2019-04-03T14:41:12.873Z,22.40
2019-04-03T14:43:46.208Z,22.40
2019-04-03T14:46:19.017Z,22.30
2019-04-03T14:48:49.279Z,22.30
2019-04-03T14:51:21.518Z,22.30
2019-04-03T14:53:53.598Z,22.10
2019-04-03T14:56:26.195Z,21.90
2019-04-03T14:58:59.401Z,21.20
2019-04-03T15:01:30.955Z,20.70
2019-04-03T15:04:01.828Z,20.60
2019-04-03T15:06:34.939Z,20.80
2019-04-03T15:09:08.343Z,20.70
2019-04-03T15:11:44.845Z,20.60
2019-04-03T15:14:15.370Z,20.50
2019-04-03T15:16:46.445Z,20.70
2019-04-03T15:19:16.699Z,21.00
2019-04-03T15:21:46.940Z,21.30
2019-04-03T15:24:16.999Z,21.60
2019-04-03T15:26:47.095Z,21.90
2019-04-03T15:29:21.367Z,21.40
2019-04-03T15:31:51.557Z,21.00
2019-04-03T15:34:22.025Z,20.60
2019-04-03T15:36:52.227Z,20.50
2019-04-03T15:39:23.278Z,20.40
2019-04-03T15:41:59.731Z,20.10
2019-04-03T15:44:29.826Z,19.80
2019-04-03T15:47:01.186Z,19.60
2019-04-03T15:49:39.709Z,19.40
2019-04-03T15:52:12.661Z,19.20
2019-04-03T15:54:42.985Z,18.90
2019-04-03T15:57:13.385Z,18.80
2019-04-03T15:59:43.463Z,18.60
2019-04-03T16:02:14.674Z,18.50
2019-04-03T16:04:46.983Z,18.30
2019-04-03T16:07:19.421Z,18.20
2019-04-03T16:09:51.123Z,18.20
2019-04-03T16:12:23.461Z,18.10
2019-04-03T16:14:53.507Z,18.10
2019-04-03T16:17:23.585Z,18.20
2019-04-03T16:19:55.219Z,18.30
2019-04-03T16:22:29.723Z,18.30
2019-04-03T16:25:02.287Z,18.30
2019-04-03T16:27:33.387Z,18.10
2019-04-03T16:30:09.721Z,18.00
2019-04-03T16:32:39.973Z,17.90
2019-04-03T16:35:13.754Z,17.80
2019-04-03T16:37:45.285Z,17.70
2019-04-03T16:40:22.632Z,17.50
2019-04-03T16:42:55.243Z,17.40
2019-04-03T16:45:37.213Z,17.30
2019-04-03T16:48:09.133Z,17.30
2019-04-03T16:50:46.311Z,17.20
2019-04-03T16:53:19.229Z,17.20
2019-04-03T16:55:50.675Z,17.10
2019-04-03T16:58:28.307Z,17.00
2019-04-03T17:00:58.899Z,17.00
2019-04-03T17:03:32.063Z,16.90
2019-04-03T17:06:02.094Z,16.90
2019-04-03T17:08:33.131Z,16.80
2019-04-03T17:11:03.540Z,16.70
2019-04-03T17:13:38.573Z,16.70
2019-04-03T17:16:15.335Z,16.60
2019-04-03T17:18:51.303Z,16.50
2019-04-03T17:21:21.399Z,16.40
2019-04-03T17:23:53.560Z,16.40
2019-04-03T17:26:24.527Z,16.30
2019-04-03T17:29:04.904Z,16.20
2019-04-03T17:31:29.919Z,16.20
2019-04-03T17:34:02.408Z,16.10
2019-04-03T17:36:41.980Z,16.00
2019-04-03T17:39:17.861Z,15.90
2019-04-03T17:41:48.939Z,15.80
2019-04-03T17:44:19.047Z,15.70
2019-04-03T17:46:49.542Z,15.80
2019-04-03T17:49:28.562Z,15.70
2019-04-03T17:52:04.682Z,15.60
2019-04-03T17:54:33.573Z,15.50
2019-04-03T17:57:03.728Z,15.50
2019-04-03T17:59:36.206Z,15.40
2019-04-03T18:02:08.307Z,15.40
2019-04-03T18:04:38.415Z,15.40
2019-04-03T18:07:08.519Z,15.40
2019-04-03T18:09:38.599Z,15.40
2019-04-03T18:12:08.703Z,15.40
2019-04-03T18:14:40.735Z,15.30
2019-04-03T18:17:10.830Z,15.20
2019-04-03T18:19:42.421Z,15.10
2019-04-03T18:22:15.636Z,15.00
2019-04-03T18:24:45.713Z,14.90
2019-04-03T18:27:15.805Z,14.50
2019-04-03T18:29:45.908Z,14.30
2019-04-03T18:32:16.077Z,14.10
2019-04-03T18:34:50.794Z,13.90
2019-04-03T18:37:18.711Z,13.80
2019-04-03T18:39:51.280Z,13.70
2019-04-03T18:42:20.608Z,13.60
2019-04-03T18:44:51.676Z,13.50
2019-04-03T18:47:21.823Z,13.40
2019-04-03T18:49:55.320Z,13.30
2019-04-03T18:52:25.535Z,13.20
2019-04-03T18:54:55.642Z,13.10
2019-04-03T18:57:25.747Z,13.10
2019-04-03T19:00:00.348Z,13.10
2019-04-03T19:02:28.554Z,13.00
2019-04-03T19:05:02.322Z,12.80
2019-04-03T19:07:30.427Z,12.90
2019-04-03T19:10:07.003Z,12.80
2019-04-03T19:12:35.832Z,12.70
2019-04-03T19:15:05.260Z,12.30
2019-04-03T19:17:35.391Z,11.70
2019-04-03T19:20:11.179Z,11.20
2019-04-03T19:22:40.812Z,10.80
2019-04-03T19:25:12.132Z,10.40
2019-04-03T19:27:42.202Z,10.20
2019-04-03T19:30:12.456Z,10.00
2019-04-03T19:32:44.007Z,9.80
2019-04-03T19:35:17.247Z,9.50
2019-04-03T19:37:47.332Z,9.30
2019-04-03T19:40:17.431Z,9.10
2019-04-03T19:42:48.833Z,8.90
2019-04-03T19:45:21.373Z,8.70
2019-04-03T19:47:51.054Z,8.60
2019-04-03T19:50:21.996Z,8.50
2019-04-03T19:52:53.028Z,8.50
2019-04-03T19:55:23.610Z,8.50
2019-04-03T19:57:57.436Z,8.50
2019-04-03T20:00:27.188Z,8.50
2019-04-03T20:02:57.259Z,8.50
2019-04-03T20:05:27.382Z,8.40
2019-04-03T20:07:58.966Z,8.20
2019-04-03T20:10:29.492Z,8.10
2019-04-03T20:12:59.611Z,8.00
2019-04-03T20:15:30.647Z,7.90
2019-04-03T20:18:00.864Z,7.70
2019-04-03T20:20:33.605Z,7.60
2019-04-03T20:23:04.688Z,7.50
2019-04-03T20:25:35.767Z,7.30
2019-04-03T20:28:06.178Z,7.20
2019-04-03T20:30:36.195Z,7.10
2019-04-03T20:33:07.259Z,7.20
2019-04-03T20:35:40.308Z,7.10
2019-04-03T20:38:10.383Z,7.20
2019-04-03T20:40:40.480Z,7.20
2019-04-03T20:43:12.563Z,7.10
2019-04-03T20:45:50.386Z,7.10
2019-04-03T20:48:27.986Z,7.10
2019-04-03T20:50:58.460Z,7.00
2019-04-03T20:53:28.920Z,6.90
2019-04-03T20:55:59.575Z,6.80
2019-04-03T20:58:29.700Z,6.80
2019-04-03T21:01:06.880Z,6.70
2019-04-03T21:03:32.552Z,6.70
2019-04-03T21:06:03.564Z,6.70
2019-04-03T21:08:33.644Z,6.60
2019-04-03T21:11:04.756Z,6.50
2019-04-03T21:13:34.868Z,6.40
2019-04-03T21:16:05.052Z,6.40
2019-04-03T21:18:42.960Z,6.30
2019-04-03T21:21:14.016Z,6.20
2019-04-03T21:23:45.112Z,6.20
2019-04-03T21:26:15.183Z,6.10
2019-04-03T21:28:45.429Z,6.10
2019-04-03T21:31:15.581Z,5.90
2019-04-03T21:33:46.676Z,5.80
2019-04-03T21:36:16.747Z,5.70
2019-04-03T21:38:46.821Z,5.60
2019-04-03T21:41:16.900Z,5.40
2019-04-03T21:43:47.930Z,5.30
2019-04-03T21:46:18.004Z,5.20
2019-04-03T21:48:48.339Z,5.20
2019-04-03T21:51:18.970Z,5.10
2019-04-03T21:53:50.192Z,5.10
2019-04-03T21:56:20.272Z,5.10
2019-04-03T21:58:50.352Z,5.00
2019-04-03T22:01:25.864Z,5.00
2019-04-03T22:03:56.028Z,4.90
2019-04-03T22:06:27.659Z,4.90
2019-04-03T22:09:00.373Z,4.80
2019-04-03T22:11:30.821Z,4.80
2019-04-03T22:14:00.919Z,4.70
2019-04-03T22:16:30.996Z,4.60
2019-04-03T22:19:01.071Z,4.60
2019-04-03T22:21:32.582Z,4.60
2019-04-03T22:24:06.583Z,4.60
2019-04-03T22:26:36.450Z,4.50
2019-04-03T22:29:06.528Z,4.40
2019-04-03T22:31:36.624Z,4.40
2019-04-03T22:34:06.795Z,4.40
2019-04-03T22:36:36.881Z,4.30
2019-04-03T22:39:08.121Z,4.30
2019-04-03T22:41:44.615Z,4.20
2019-04-03T22:44:16.859Z,4.20
2019-04-03T22:46:46.468Z,4.10
2019-04-03T22:49:18.804Z,4.00
2019-04-03T22:51:48.911Z,4.00
2019-04-03T22:54:19.955Z,3.90
2019-04-03T22:56:50.046Z,3.80
2019-04-03T22:59:20.124Z,3.80
2019-04-03T23:01:50.216Z,3.80
2019-04-03T23:04:26.156Z,3.80
2019-04-03T23:06:57.171Z,3.80
2019-04-03T23:09:34.769Z,3.80
2019-04-03T23:12:05.944Z,3.80
2019-04-03T23:14:38.250Z,3.90
2019-04-03T23:17:14.459Z,4.00
2019-04-03T23:19:44.635Z,4.10
2019-04-03T23:22:14.748Z,4.20
2019-04-03T23:24:45.823Z,4.40
2019-04-03T23:27:15.916Z,4.40
2019-04-03T23:29:53.041Z,4.50
2019-04-03T23:32:28.256Z,4.50
2019-04-03T23:35:01.481Z,4.60
2019-04-03T23:37:32.508Z,4.60
2019-04-03T23:40:03.607Z,4.60
2019-04-03T23:42:35.888Z,4.70
2019-04-03T23:45:19.576Z,4.70
2019-04-03T23:47:51.327Z,4.80
2019-04-03T23:50:22.563Z,4.80
2019-04-03T23:52:53.580Z,4.80
2019-04-03T23:55:24.636Z,4.80
2019-04-03T23:57:54.764Z,4.80
